sensor_id;sensor_type;location;lat;lon;timestamp;P1;durP1;ratioP1;P2;durP2;ratioP2
1577;SDS011;57623;53.608;10.004;2022-08-19T00:01:14;12.60;;;11.50;;
1577;SDS011;57623;53.608;10.004;2022-08-19T00:04:15;12.20;;;11.10;;
1577;SDS011;57623;53.608;10.004;2022-08-19T00:07:11;13.13;;;11.83;;
1577;SDS011;57623;53.608;10.004;2022-08-19T00:09:59;14.00;;;12.80;;
1577;SDS011;57623;53.608;10.004;2022-08-19T00:12:47;17.57;;;15.83;;
1577;SDS011;57623;53.608;10.004;2022-08-19T00:15:36;18.23;;;16.43;;
1577;SDS011;57623;53.608;10.004;2022-08-19T00:18:24;21.07;;;18.90;;
1577;SDS011;57623;53.608;10.004;2022-08-19T00:21:24;20.43;;;18.43;;
1577;SDS011;57623;53.608;10.004;2022-08-19T00:24:16;19.03;;;17.00;;
1577;SDS011;57623;53.608;10.004;2022-08-19T00:27:05;19.67;;;17.60;;
1577;SDS011;57623;53.608;10.004;2022-08-19T00:30:12;18.07;;;16.37;;
1577;SDS011;57623;53.608;10.004;2022-08-19T00:33:01;18.27;;;16.50;;
1577;SDS011;57623;53.608;10.004;2022-08-19T00:35:50;21.20;;;18.90;;
1577;SDS011;57623;53.608;10.004;2022-08-19T00:38:41;19.00;;;17.10;;
1577;SDS011;57623;53.608;10.004;2022-08-19T00:41:31;19.67;;;17.60;;
1577;SDS011;57623;53.608;10.004;2022-08-19T00:44:23;19.20;;;17.37;;
1577;SDS011;57623;53.608;10.004;2022-08-19T00:47:16;20.47;;;18.00;;
1577;SDS011;57623;53.608;10.004;2022-08-19T00:50:10;20.90;;;18.70;;
1577;SDS011;57623;53.608;10.004;2022-08-19T00:53:00;21.10;;;18.97;;
1577;SDS011;57623;53.608;10.004;2022-08-19T00:55:53;23.30;;;18.90;;
1577;SDS011;57623;53.608;10.004;2022-08-19T00:58:46;21.00;;;18.20;;
1577;SDS011;57623;53.608;10.004;2022-08-19T01:01:36;21.03;;;18.97;;
1577;SDS011;57623;53.608;10.004;2022-08-19T01:04:25;21.03;;;18.80;;
1577;SDS011;57623;53.608;10.004;2022-08-19T01:07:13;21.43;;;19.20;;
1577;SDS011;57623;53.608;10.004;2022-08-19T01:10:06;20.60;;;18.60;;
1577;SDS011;57623;53.608;10.004;2022-08-19T01:12:59;21.60;;;19.40;;
1577;SDS011;57623;53.608;10.004;2022-08-19T01:16:01;17.63;;;15.83;;
1577;SDS011;57623;53.608;10.004;2022-08-19T01:18:51;19.00;;;17.10;;
1577;SDS011;57623;53.608;10.004;2022-08-19T01:21:50;19.97;;;17.80;;
1577;SDS011;57623;53.608;10.004;2022-08-19T01:25:02;19.27;;;17.33;;
1577;SDS011;57623;53.608;10.004;2022-08-19T01:28:00;18.63;;;16.67;;
1577;SDS011;57623;53.608;10.004;2022-08-19T01:30:56;19.83;;;17.93;;
1577;SDS011;57623;53.608;10.004;2022-08-19T01:33:54;18.53;;;16.83;;
1577;SDS011;57623;53.608;10.004;2022-08-19T01:36:47;21.67;;;19.47;;
1577;SDS011;57623;53.608;10.004;2022-08-19T01:39:35;18.77;;;16.97;;
1577;SDS011;57623;53.608;10.004;2022-08-19T01:42:25;17.83;;;16.17;;
1577;SDS011;57623;53.608;10.004;2022-08-19T01:45:18;20.90;;;18.80;;
1577;SDS011;57623;53.608;10.004;2022-08-19T01:48:10;20.77;;;18.57;;
1577;SDS011;57623;53.608;10.004;2022-08-19T01:51:10;21.80;;;17.93;;
1577;SDS011;57623;53.608;10.004;2022-08-19T01:54:00;20.33;;;18.10;;
1577;SDS011;57623;53.608;10.004;2022-08-19T01:56:48;22.53;;;18.10;;
1577;SDS011;57623;53.608;10.004;2022-08-19T01:59:50;19.67;;;17.67;;
1577;SDS011;57623;53.608;10.004;2022-08-19T02:02:39;21.90;;;19.63;;
1577;SDS011;57623;53.608;10.004;2022-08-19T02:05:30;22.90;;;20.00;;
1577;SDS011;57623;53.608;10.004;2022-08-19T02:08:18;22.67;;;20.27;;
1577;SDS011;57623;53.608;10.004;2022-08-19T02:11:07;24.43;;;20.43;;
1577;SDS011;57623;53.608;10.004;2022-08-19T02:13:57;26.17;;;20.53;;
1577;SDS011;57623;53.608;10.004;2022-08-19T02:16:50;20.63;;;18.30;;
1577;SDS011;57623;53.608;10.004;2022-08-19T02:19:47;24.60;;;17.80;;
1577;SDS011;57623;53.608;10.004;2022-08-19T02:22:42;21.27;;;19.00;;
1577;SDS011;57623;53.608;10.004;2022-08-19T02:25:40;21.87;;;19.43;;
1577;SDS011;57623;53.608;10.004;2022-08-19T02:28:32;22.70;;;19.70;;
1577;SDS011;57623;53.608;10.004;2022-08-19T02:31:37;24.30;;;20.30;;
1577;SDS011;57623;53.608;10.004;2022-08-19T02:34:29;22.27;;;19.87;;
1577;SDS011;57623;53.608;10.004;2022-08-19T02:37:28;24.33;;;19.27;;
1577;SDS011;57623;53.608;10.004;2022-08-19T02:40:33;24.67;;;19.67;;
1577;SDS011;57623;53.608;10.004;2022-08-19T02:43:22;25.83;;;20.60;;
1577;SDS011;57623;53.608;10.004;2022-08-19T02:46:21;28.47;;;21.80;;
1577;SDS011;57623;53.608;10.004;2022-08-19T02:49:22;28.03;;;21.63;;
1577;SDS011;57623;53.608;10.004;2022-08-19T02:52:28;27.03;;;21.47;;
1577;SDS011;57623;53.608;10.004;2022-08-19T02:55:16;25.67;;;21.67;;
1577;SDS011;57623;53.608;10.004;2022-08-19T02:58:06;31.17;;;22.43;;
1577;SDS011;57623;53.608;10.004;2022-08-19T03:00:58;27.67;;;22.17;;
1577;SDS011;57623;53.608;10.004;2022-08-19T03:03:49;24.53;;;20.50;;
1577;SDS011;57623;53.608;10.004;2022-08-19T03:06:44;25.87;;;20.30;;
1577;SDS011;57623;53.608;10.004;2022-08-19T03:09:36;28.43;;;20.97;;
1577;SDS011;57623;53.608;10.004;2022-08-19T03:12:26;31.20;;;22.30;;
1577;SDS011;57623;53.608;10.004;2022-08-19T03:15:14;30.20;;;22.00;;
1577;SDS011;57623;53.608;10.004;2022-08-19T03:18:21;26.80;;;20.87;;
1577;SDS011;57623;53.608;10.004;2022-08-19T03:21:14;27.47;;;21.93;;
1577;SDS011;57623;53.608;10.004;2022-08-19T03:24:30;26.07;;;21.70;;
1577;SDS011;57623;53.608;10.004;2022-08-19T03:27:22;26.17;;;22.47;;
1577;SDS011;57623;53.608;10.004;2022-08-19T03:30:15;26.30;;;20.50;;
1577;SDS011;57623;53.608;10.004;2022-08-19T03:33:09;25.60;;;20.73;;
1577;SDS011;57623;53.608;10.004;2022-08-19T03:36:05;27.90;;;21.80;;
1577;SDS011;57623;53.608;10.004;2022-08-19T03:38:56;23.90;;;21.10;;
1577;SDS011;57623;53.608;10.004;2022-08-19T03:41:50;28.23;;;21.07;;
1577;SDS011;57623;53.608;10.004;2022-08-19T03:44:59;24.17;;;20.23;;
1577;SDS011;57623;53.608;10.004;2022-08-19T03:47:55;29.10;;;21.20;;
1577;SDS011;57623;53.608;10.004;2022-08-19T03:50:46;27.10;;;20.37;;
1577;SDS011;57623;53.608;10.004;2022-08-19T03:53:43;27.10;;;20.87;;
1577;SDS011;57623;53.608;10.004;2022-08-19T03:56:59;27.53;;;21.20;;
1577;SDS011;57623;53.608;10.004;2022-08-19T03:59:52;29.57;;;20.53;;
1577;SDS011;57623;53.608;10.004;2022-08-19T04:02:59;26.80;;;20.00;;
1577;SDS011;57623;53.608;10.004;2022-08-19T04:05:50;25.90;;;19.50;;
1577;SDS011;57623;53.608;10.004;2022-08-19T04:08:39;23.50;;;18.53;;
1577;SDS011;57623;53.608;10.004;2022-08-19T04:11:29;22.90;;;19.00;;
1577;SDS011;57623;53.608;10.004;2022-08-19T04:14:31;23.43;;;17.73;;
1577;SDS011;57623;53.608;10.004;2022-08-19T04:17:23;21.57;;;18.17;;
1577;SDS011;57623;53.608;10.004;2022-08-19T04:20:15;26.27;;;20.57;;
1577;SDS011;57623;53.608;10.004;2022-08-19T04:23:07;27.10;;;19.90;;
1577;SDS011;57623;53.608;10.004;2022-08-19T04:25:58;25.70;;;19.50;;
1577;SDS011;57623;53.608;10.004;2022-08-19T04:28:53;29.50;;;22.20;;
1577;SDS011;57623;53.608;10.004;2022-08-19T04:31:44;28.33;;;22.00;;
1577;SDS011;57623;53.608;10.004;2022-08-19T04:34:36;29.77;;;22.63;;
1577;SDS011;57623;53.608;10.004;2022-08-19T04:37:51;32.73;;;24.17;;
1577;SDS011;57623;53.608;10.004;2022-08-19T04:40:40;34.97;;;24.30;;
1577;SDS011;57623;53.608;10.004;2022-08-19T04:43:50;29.60;;;21.57;;
1577;SDS011;57623;53.608;10.004;2022-08-19T04:46:46;32.80;;;24.27;;
1577;SDS011;57623;53.608;10.004;2022-08-19T04:49:41;32.67;;;23.77;;
1577;SDS011;57623;53.608;10.004;2022-08-19T04:52:29;30.53;;;23.20;;
1577;SDS011;57623;53.608;10.004;2022-08-19T04:55:17;30.30;;;23.87;;
1577;SDS011;57623;53.608;10.004;2022-08-19T04:58:06;30.53;;;24.27;;
1577;SDS011;57623;53.608;10.004;2022-08-19T05:00:57;30.43;;;23.17;;
1577;SDS011;57623;53.608;10.004;2022-08-19T05:03:48;32.37;;;26.13;;
1577;SDS011;57623;53.608;10.004;2022-08-19T05:06:37;33.47;;;26.53;;
1577;SDS011;57623;53.608;10.004;2022-08-19T05:09:35;32.90;;;24.10;;
1577;SDS011;57623;53.608;10.004;2022-08-19T05:12:43;33.83;;;26.10;;
1577;SDS011;57623;53.608;10.004;2022-08-19T05:15:31;34.70;;;24.20;;
1577;SDS011;57623;53.608;10.004;2022-08-19T05:18:26;35.23;;;25.60;;
1577;SDS011;57623;53.608;10.004;2022-08-19T05:21:37;36.53;;;26.23;;
1577;SDS011;57623;53.608;10.004;2022-08-19T05:24:47;38.93;;;26.70;;
1577;SDS011;57623;53.608;10.004;2022-08-19T05:28:03;32.83;;;26.07;;
1577;SDS011;57623;53.608;10.004;2022-08-19T05:30:54;35.43;;;27.03;;
1577;SDS011;57623;53.608;10.004;2022-08-19T05:33:42;35.67;;;26.17;;
1577;SDS011;57623;53.608;10.004;2022-08-19T05:36:34;31.93;;;26.53;;
1577;SDS011;57623;53.608;10.004;2022-08-19T05:39:27;37.87;;;26.37;;
1577;SDS011;57623;53.608;10.004;2022-08-19T05:42:17;29.13;;;24.93;;
1577;SDS011;57623;53.608;10.004;2022-08-19T05:45:07;33.50;;;25.80;;
1577;SDS011;57623;53.608;10.004;2022-08-19T05:47:56;30.10;;;25.57;;
1577;SDS011;57623;53.608;10.004;2022-08-19T05:50:52;30.50;;;23.57;;
1577;SDS011;57623;53.608;10.004;2022-08-19T05:53:46;30.97;;;24.10;;
1577;SDS011;57623;53.608;10.004;2022-08-19T05:56:39;28.50;;;24.20;;
1577;SDS011;57623;53.608;10.004;2022-08-19T05:59:29;26.47;;;23.63;;
1577;SDS011;57623;53.608;10.004;2022-08-19T06:02:24;28.80;;;23.67;;
1577;SDS011;57623;53.608;10.004;2022-08-19T06:05:13;28.50;;;22.67;;
1577;SDS011;57623;53.608;10.004;2022-08-19T06:08:01;27.67;;;22.73;;
1577;SDS011;57623;53.608;10.004;2022-08-19T06:10:52;26.67;;;22.90;;
1577;SDS011;57623;53.608;10.004;2022-08-19T06:13:40;27.13;;;22.70;;
1577;SDS011;57623;53.608;10.004;2022-08-19T06:16:31;29.53;;;22.53;;
1577;SDS011;57623;53.608;10.004;2022-08-19T06:19:22;26.40;;;23.60;;
1577;SDS011;57623;53.608;10.004;2022-08-19T06:22:11;28.40;;;23.83;;
1577;SDS011;57623;53.608;10.004;2022-08-19T06:25:00;28.60;;;23.30;;
1577;SDS011;57623;53.608;10.004;2022-08-19T06:27:50;31.70;;;25.30;;
1577;SDS011;57623;53.608;10.004;2022-08-19T06:31:00;27.10;;;22.97;;
1577;SDS011;57623;53.608;10.004;2022-08-19T06:33:53;33.00;;;26.67;;
1577;SDS011;57623;53.608;10.004;2022-08-19T06:36:45;27.17;;;24.10;;
1577;SDS011;57623;53.608;10.004;2022-08-19T06:39:35;30.90;;;24.87;;
1577;SDS011;57623;53.608;10.004;2022-08-19T06:42:25;33.13;;;25.97;;
1577;SDS011;57623;53.608;10.004;2022-08-19T06:45:17;30.70;;;25.97;;
1577;SDS011;57623;53.608;10.004;2022-08-19T06:48:10;29.37;;;26.27;;
1577;SDS011;57623;53.608;10.004;2022-08-19T06:51:00;35.03;;;26.53;;
1577;SDS011;57623;53.608;10.004;2022-08-19T06:53:56;31.63;;;25.97;;
1577;SDS011;57623;53.608;10.004;2022-08-19T06:56:44;35.43;;;27.07;;
1577;SDS011;57623;53.608;10.004;2022-08-19T06:59:32;31.40;;;26.80;;
1577;SDS011;57623;53.608;10.004;2022-08-19T07:02:22;36.40;;;26.60;;
1577;SDS011;57623;53.608;10.004;2022-08-19T07:05:12;31.13;;;26.40;;
1577;SDS011;57623;53.608;10.004;2022-08-19T07:08:02;34.40;;;26.90;;
1577;SDS011;57623;53.608;10.004;2022-08-19T07:10:52;34.80;;;27.53;;
1577;SDS011;57623;53.608;10.004;2022-08-19T07:13:41;36.27;;;27.17;;
1577;SDS011;57623;53.608;10.004;2022-08-19T07:16:30;27.93;;;23.73;;
1577;SDS011;57623;53.608;10.004;2022-08-19T07:19:19;35.83;;;26.20;;
1577;SDS011;57623;53.608;10.004;2022-08-19T07:22:08;33.90;;;25.73;;
1577;SDS011;57623;53.608;10.004;2022-08-19T07:24:59;32.50;;;26.90;;
1577;SDS011;57623;53.608;10.004;2022-08-19T07:27:50;33.13;;;27.27;;
1577;SDS011;57623;53.608;10.004;2022-08-19T07:30:40;29.70;;;25.47;;
1577;SDS011;57623;53.608;10.004;2022-08-19T07:33:29;32.17;;;26.80;;
1577;SDS011;57623;53.608;10.004;2022-08-19T07:36:21;31.57;;;25.50;;
1577;SDS011;57623;53.608;10.004;2022-08-19T07:39:17;35.67;;;26.87;;
1577;SDS011;57623;53.608;10.004;2022-08-19T07:42:11;32.10;;;25.43;;
1577;SDS011;57623;53.608;10.004;2022-08-19T07:45:00;30.53;;;23.67;;
1577;SDS011;57623;53.608;10.004;2022-08-19T07:47:51;31.50;;;24.70;;
1577;SDS011;57623;53.608;10.004;2022-08-19T07:50:44;31.20;;;25.37;;
1577;SDS011;57623;53.608;10.004;2022-08-19T07:53:36;29.97;;;23.07;;
1577;SDS011;57623;53.608;10.004;2022-08-19T07:56:25;29.40;;;25.70;;
1577;SDS011;57623;53.608;10.004;2022-08-19T07:59:14;28.73;;;23.83;;
1577;SDS011;57623;53.608;10.004;2022-08-19T08:02:04;30.70;;;25.27;;
1577;SDS011;57623;53.608;10.004;2022-08-19T08:04:53;28.40;;;23.70;;
1577;SDS011;57623;53.608;10.004;2022-08-19T08:07:59;26.30;;;21.30;;
1577;SDS011;57623;53.608;10.004;2022-08-19T08:11:14;26.90;;;22.57;;
1577;SDS011;57623;53.608;10.004;2022-08-19T08:14:06;24.47;;;21.97;;
1577;SDS011;57623;53.608;10.004;2022-08-19T08:17:15;25.63;;;22.47;;
1577;SDS011;57623;53.608;10.004;2022-08-19T08:20:28;23.33;;;20.93;;
1577;SDS011;57623;53.608;10.004;2022-08-19T08:23:16;25.67;;;20.80;;
1577;SDS011;57623;53.608;10.004;2022-08-19T08:26:12;24.30;;;20.33;;
1577;SDS011;57623;53.608;10.004;2022-08-19T08:29:06;23.87;;;20.70;;
1577;SDS011;57623;53.608;10.004;2022-08-19T08:31:58;22.77;;;19.53;;
1577;SDS011;57623;53.608;10.004;2022-08-19T08:35:00;23.53;;;21.00;;
1577;SDS011;57623;53.608;10.004;2022-08-19T08:37:49;24.37;;;19.40;;
1577;SDS011;57623;53.608;10.004;2022-08-19T08:40:42;23.90;;;21.40;;
1577;SDS011;57623;53.608;10.004;2022-08-19T08:43:37;23.70;;;21.30;;
1577;SDS011;57623;53.608;10.004;2022-08-19T08:46:41;23.97;;;20.77;;
1577;SDS011;57623;53.608;10.004;2022-08-19T08:49:35;22.43;;;20.00;;
1577;SDS011;57623;53.608;10.004;2022-08-19T08:52:31;21.20;;;19.07;;
1577;SDS011;57623;53.608;10.004;2022-08-19T08:55:26;22.97;;;19.03;;
1577;SDS011;57623;53.608;10.004;2022-08-19T08:58:24;17.20;;;15.30;;
1577;SDS011;57623;53.608;10.004;2022-08-19T09:01:17;16.97;;;14.87;;
1577;SDS011;57623;53.608;10.004;2022-08-19T09:04:08;16.40;;;14.23;;
1577;SDS011;57623;53.608;10.004;2022-08-19T09:07:04;15.63;;;13.43;;
1577;SDS011;57623;53.608;10.004;2022-08-19T09:10:28;16.40;;;14.80;;
1577;SDS011;57623;53.608;10.004;2022-08-19T09:13:21;22.73;;;16.40;;
1577;SDS011;57623;53.608;10.004;2022-08-19T09:16:23;17.60;;;14.30;;
1577;SDS011;57623;53.608;10.004;2022-08-19T09:19:15;17.60;;;15.40;;
1577;SDS011;57623;53.608;10.004;2022-08-19T09:22:08;17.13;;;14.87;;
1577;SDS011;57623;53.608;10.004;2022-08-19T09:24:58;17.10;;;15.30;;
1577;SDS011;57623;53.608;10.004;2022-08-19T09:27:46;17.83;;;16.03;;
1577;SDS011;57623;53.608;10.004;2022-08-19T09:30:40;17.27;;;15.47;;
1577;SDS011;57623;53.608;10.004;2022-08-19T09:33:29;15.00;;;13.50;;
1577;SDS011;57623;53.608;10.004;2022-08-19T09:36:20;18.87;;;14.63;;
1577;SDS011;57623;53.608;10.004;2022-08-19T09:39:20;18.70;;;15.67;;
1577;SDS011;57623;53.608;10.004;2022-08-19T09:42:09;16.53;;;14.83;;
1577;SDS011;57623;53.608;10.004;2022-08-19T09:45:06;17.33;;;12.80;;
1577;SDS011;57623;53.608;10.004;2022-08-19T09:47:57;18.27;;;14.60;;
1577;SDS011;57623;53.608;10.004;2022-08-19T09:50:47;13.93;;;12.63;;
1577;SDS011;57623;53.608;10.004;2022-08-19T09:53:39;16.57;;;13.57;;
1577;SDS011;57623;53.608;10.004;2022-08-19T09:56:27;13.00;;;11.60;;
1577;SDS011;57623;53.608;10.004;2022-08-19T09:59:19;14.40;;;12.90;;
1577;SDS011;57623;53.608;10.004;2022-08-19T10:02:08;17.57;;;14.93;;
1577;SDS011;57623;53.608;10.004;2022-08-19T10:05:08;16.80;;;14.93;;
1577;SDS011;57623;53.608;10.004;2022-08-19T10:08:17;17.23;;;14.80;;
1577;SDS011;57623;53.608;10.004;2022-08-19T10:11:13;16.20;;;14.43;;
1577;SDS011;57623;53.608;10.004;2022-08-19T10:14:20;16.40;;;14.70;;
1577;SDS011;57623;53.608;10.004;2022-08-19T10:17:09;17.30;;;15.57;;
1577;SDS011;57623;53.608;10.004;2022-08-19T10:20:06;16.77;;;14.33;;
1577;SDS011;57623;53.608;10.004;2022-08-19T10:22:56;15.47;;;13.87;;
1577;SDS011;57623;53.608;10.004;2022-08-19T10:25:47;15.83;;;14.13;;
1577;SDS011;57623;53.608;10.004;2022-08-19T10:28:39;16.97;;;15.27;;
1577;SDS011;57623;53.608;10.004;2022-08-19T10:31:33;17.40;;;15.50;;
1577;SDS011;57623;53.608;10.004;2022-08-19T10:34:45;16.77;;;15.17;;
1577;SDS011;57623;53.608;10.004;2022-08-19T10:37:42;19.90;;;16.27;;
1577;SDS011;57623;53.608;10.004;2022-08-19T10:40:47;18.30;;;15.83;;
1577;SDS011;57623;53.608;10.004;2022-08-19T10:43:35;18.80;;;16.90;;
1577;SDS011;57623;53.608;10.004;2022-08-19T10:46:26;19.07;;;16.90;;
1577;SDS011;57623;53.608;10.004;2022-08-19T10:49:18;18.87;;;16.87;;
1577;SDS011;57623;53.608;10.004;2022-08-19T10:52:08;20.60;;;18.00;;
1577;SDS011;57623;53.608;10.004;2022-08-19T10:55:19;20.33;;;17.03;;
1577;SDS011;57623;53.608;10.004;2022-08-19T10:58:26;18.10;;;16.30;;
1577;SDS011;57623;53.608;10.004;2022-08-19T11:01:18;19.77;;;16.27;;
1577;SDS011;57623;53.608;10.004;2022-08-19T11:04:09;20.50;;;18.40;;
1577;SDS011;57623;53.608;10.004;2022-08-19T11:06:59;18.40;;;16.03;;
1577;SDS011;57623;53.608;10.004;2022-08-19T11:09:49;18.27;;;15.40;;
1577;SDS011;57623;53.608;10.004;2022-08-19T11:12:38;17.60;;;15.87;;
1577;SDS011;57623;53.608;10.004;2022-08-19T11:15:27;20.83;;;18.40;;
1577;SDS011;57623;53.608;10.004;2022-08-19T11:18:19;18.90;;;16.90;;
1577;SDS011;57623;53.608;10.004;2022-08-19T11:21:10;19.37;;;15.63;;
1577;SDS011;57623;53.608;10.004;2022-08-19T11:24:03;19.10;;;17.20;;
1577;SDS011;57623;53.608;10.004;2022-08-19T11:26:54;19.40;;;17.40;;
1577;SDS011;57623;53.608;10.004;2022-08-19T11:29:49;17.83;;;15.93;;
1577;SDS011;57623;53.608;10.004;2022-08-19T11:32:39;15.67;;;14.17;;
1577;SDS011;57623;53.608;10.004;2022-08-19T11:35:38;16.37;;;14.80;;
1577;SDS011;57623;53.608;10.004;2022-08-19T11:38:28;17.93;;;16.17;;
1577;SDS011;57623;53.608;10.004;2022-08-19T11:41:17;16.93;;;15.13;;
1577;SDS011;57623;53.608;10.004;2022-08-19T11:44:07;17.77;;;15.97;;
1577;SDS011;57623;53.608;10.004;2022-08-19T11:47:01;16.67;;;15.13;;
1577;SDS011;57623;53.608;10.004;2022-08-19T11:49:54;14.53;;;13.03;;
1577;SDS011;57623;53.608;10.004;2022-08-19T11:52:43;17.57;;;15.90;;
1577;SDS011;57623;53.608;10.004;2022-08-19T11:55:34;15.83;;;14.40;;
1577;SDS011;57623;53.608;10.004;2022-08-19T11:58:29;14.70;;;13.40;;
1577;SDS011;57623;53.608;10.004;2022-08-19T12:01:18;14.90;;;13.43;;
1577;SDS011;57623;53.608;10.004;2022-08-19T12:04:09;14.57;;;13.17;;
1577;SDS011;57623;53.608;10.004;2022-08-19T12:06:58;15.30;;;13.97;;
1577;SDS011;57623;53.608;10.004;2022-08-19T12:09:46;14.83;;;13.43;;
1577;SDS011;57623;53.608;10.004;2022-08-19T12:12:36;17.20;;;13.50;;
1577;SDS011;57623;53.608;10.004;2022-08-19T12:15:27;15.27;;;13.87;;
1577;SDS011;57623;53.608;10.004;2022-08-19T12:18:22;14.70;;;13.40;;
1577;SDS011;57623;53.608;10.004;2022-08-19T12:21:11;15.53;;;14.13;;
1577;SDS011;57623;53.608;10.004;2022-08-19T12:24:07;14.37;;;13.07;;
1577;SDS011;57623;53.608;10.004;2022-08-19T12:26:56;13.37;;;12.20;;
1577;SDS011;57623;53.608;10.004;2022-08-19T12:29:50;12.83;;;11.83;;
1577;SDS011;57623;53.608;10.004;2022-08-19T12:32:40;11.67;;;10.57;;
1577;SDS011;57623;53.608;10.004;2022-08-19T12:35:28;13.63;;;12.40;;
1577;SDS011;57623;53.608;10.004;2022-08-19T12:38:17;13.83;;;12.03;;
1577;SDS011;57623;53.608;10.004;2022-08-19T12:41:09;13.13;;;11.93;;
1577;SDS011;57623;53.608;10.004;2022-08-19T12:44:02;12.70;;;11.60;;
1577;SDS011;57623;53.608;10.004;2022-08-19T12:46:54;11.23;;;10.33;;
1577;SDS011;57623;53.608;10.004;2022-08-19T12:49:43;12.10;;;11.07;;
1577;SDS011;57623;53.608;10.004;2022-08-19T12:52:40;12.37;;;11.43;;
1577;SDS011;57623;53.608;10.004;2022-08-19T12:55:30;12.63;;;11.63;;
1577;SDS011;57623;53.608;10.004;2022-08-19T12:58:19;10.63;;;9.53;;
1577;SDS011;57623;53.608;10.004;2022-08-19T13:01:13;12.73;;;11.73;;
1577;SDS011;57623;53.608;10.004;2022-08-19T13:04:09;11.20;;;10.30;;
1577;SDS011;57623;53.608;10.004;2022-08-19T13:07:01;11.27;;;10.37;;
1577;SDS011;57623;53.608;10.004;2022-08-19T13:09:50;11.90;;;10.90;;
1577;SDS011;57623;53.608;10.004;2022-08-19T13:12:41;12.00;;;11.00;;
1577;SDS011;57623;53.608;10.004;2022-08-19T13:15:29;12.47;;;11.37;;
1577;SDS011;57623;53.608;10.004;2022-08-19T13:18:21;11.70;;;10.70;;
1577;SDS011;57623;53.608;10.004;2022-08-19T13:21:13;12.70;;;11.70;;
1577;SDS011;57623;53.608;10.004;2022-08-19T13:24:03;12.20;;;11.20;;
1577;SDS011;57623;53.608;10.004;2022-08-19T13:26:55;10.93;;;10.10;;
1577;SDS011;57623;53.608;10.004;2022-08-19T13:29:47;13.60;;;12.30;;
1577;SDS011;57623;53.608;10.004;2022-08-19T13:32:55;12.13;;;11.20;;
1577;SDS011;57623;53.608;10.004;2022-08-19T13:36:01;11.50;;;10.50;;
1577;SDS011;57623;53.608;10.004;2022-08-19T13:38:57;12.20;;;11.20;;
1577;SDS011;57623;53.608;10.004;2022-08-19T13:41:48;11.97;;;10.97;;
1577;SDS011;57623;53.608;10.004;2022-08-19T13:44:36;12.07;;;11.27;;
1577;SDS011;57623;53.608;10.004;2022-08-19T13:47:26;12.23;;;11.30;;
1577;SDS011;57623;53.608;10.004;2022-08-19T13:50:19;12.17;;;11.20;;
1577;SDS011;57623;53.608;10.004;2022-08-19T13:53:10;12.43;;;11.43;;
1577;SDS011;57623;53.608;10.004;2022-08-19T13:56:05;12.47;;;11.37;;
1577;SDS011;57623;53.608;10.004;2022-08-19T13:58:54;12.13;;;11.13;;
1577;SDS011;57623;53.608;10.004;2022-08-19T14:01:45;11.40;;;10.50;;
1577;SDS011;57623;53.608;10.004;2022-08-19T14:04:45;12.40;;;11.40;;
1577;SDS011;57623;53.608;10.004;2022-08-19T14:07:33;11.60;;;10.77;;
1577;SDS011;57623;53.608;10.004;2022-08-19T14:10:25;11.50;;;10.60;;
1577;SDS011;57623;53.608;10.004;2022-08-19T14:13:17;11.87;;;10.87;;
1577;SDS011;57623;53.608;10.004;2022-08-19T14:16:07;13.23;;;12.13;;
1577;SDS011;57623;53.608;10.004;2022-08-19T14:18:56;12.47;;;11.57;;
1577;SDS011;57623;53.608;10.004;2022-08-19T14:21:48;13.23;;;12.13;;
1577;SDS011;57623;53.608;10.004;2022-08-19T14:24:38;13.93;;;12.93;;
1577;SDS011;57623;53.608;10.004;2022-08-19T14:27:33;14.50;;;13.27;;
1577;SDS011;57623;53.608;10.004;2022-08-19T14:30:25;15.13;;;13.90;;
1577;SDS011;57623;53.608;10.004;2022-08-19T14:33:15;14.43;;;13.33;;
1577;SDS011;57623;53.608;10.004;2022-08-19T14:36:03;14.73;;;13.47;;
1577;SDS011;57623;53.608;10.004;2022-08-19T14:38:52;13.63;;;12.47;;
1577;SDS011;57623;53.608;10.004;2022-08-19T14:41:41;14.10;;;12.90;;
1577;SDS011;57623;53.608;10.004;2022-08-19T14:44:29;13.03;;;12.03;;
1577;SDS011;57623;53.608;10.004;2022-08-19T14:47:23;13.17;;;12.07;;
1577;SDS011;57623;53.608;10.004;2022-08-19T14:50:18;13.13;;;12.03;;
1577;SDS011;57623;53.608;10.004;2022-08-19T14:53:08;14.43;;;13.13;;
1577;SDS011;57623;53.608;10.004;2022-08-19T14:55:58;13.43;;;12.30;;
1577;SDS011;57623;53.608;10.004;2022-08-19T14:58:49;14.40;;;13.30;;
1577;SDS011;57623;53.608;10.004;2022-08-19T15:01:40;13.77;;;12.63;;
1577;SDS011;57623;53.608;10.004;2022-08-19T15:04:29;14.97;;;13.77;;
1577;SDS011;57623;53.608;10.004;2022-08-19T15:07:19;14.27;;;13.03;;
1577;SDS011;57623;53.608;10.004;2022-08-19T15:10:12;13.20;;;12.20;;
1577;SDS011;57623;53.608;10.004;2022-08-19T15:13:04;13.63;;;12.63;;
1577;SDS011;57623;53.608;10.004;2022-08-19T15:15:55;14.00;;;12.90;;
1577;SDS011;57623;53.608;10.004;2022-08-19T15:18:43;14.13;;;13.03;;
1577;SDS011;57623;53.608;10.004;2022-08-19T15:21:34;13.40;;;12.30;;
1577;SDS011;57623;53.608;10.004;2022-08-19T15:24:23;14.50;;;13.33;;
1577;SDS011;57623;53.608;10.004;2022-08-19T15:27:12;12.77;;;11.67;;
1577;SDS011;57623;53.608;10.004;2022-08-19T15:30:01;13.43;;;12.37;;
1577;SDS011;57623;53.608;10.004;2022-08-19T15:32:49;12.87;;;11.77;;
1577;SDS011;57623;53.608;10.004;2022-08-19T15:35:38;12.50;;;11.50;;
1577;SDS011;57623;53.608;10.004;2022-08-19T15:38:29;11.93;;;11.00;;
1577;SDS011;57623;53.608;10.004;2022-08-19T15:41:26;12.87;;;11.97;;
1577;SDS011;57623;53.608;10.004;2022-08-19T15:44:19;10.53;;;9.77;;
1577;SDS011;57623;53.608;10.004;2022-08-19T15:47:07;11.00;;;10.20;;
1577;SDS011;57623;53.608;10.004;2022-08-19T15:49:57;11.87;;;10.97;;
1577;SDS011;57623;53.608;10.004;2022-08-19T15:52:47;12.20;;;11.10;;
1577;SDS011;57623;53.608;10.004;2022-08-19T15:55:42;12.00;;;11.10;;
1577;SDS011;57623;53.608;10.004;2022-08-19T15:58:36;11.00;;;10.10;;
1577;SDS011;57623;53.608;10.004;2022-08-19T16:01:42;11.57;;;10.67;;
1577;SDS011;57623;53.608;10.004;2022-08-19T16:04:50;11.20;;;10.40;;
1577;SDS011;57623;53.608;10.004;2022-08-19T16:07:55;10.67;;;9.87;;
1577;SDS011;57623;53.608;10.004;2022-08-19T16:10:45;11.23;;;10.37;;
1577;SDS011;57623;53.608;10.004;2022-08-19T16:13:35;11.40;;;10.60;;
1577;SDS011;57623;53.608;10.004;2022-08-19T16:16:30;9.90;;;9.17;;
1577;SDS011;57623;53.608;10.004;2022-08-19T16:19:19;12.43;;;11.47;;
1577;SDS011;57623;53.608;10.004;2022-08-19T16:22:09;10.00;;;9.30;;
1577;SDS011;57623;53.608;10.004;2022-08-19T16:24:58;11.00;;;10.00;;
1577;SDS011;57623;53.608;10.004;2022-08-19T16:27:50;11.43;;;10.53;;
1577;SDS011;57623;53.608;10.004;2022-08-19T16:30:56;11.20;;;10.40;;
1577;SDS011;57623;53.608;10.004;2022-08-19T16:33:46;9.90;;;9.20;;
1577;SDS011;57623;53.608;10.004;2022-08-19T16:36:37;10.87;;;10.07;;
1577;SDS011;57623;53.608;10.004;2022-08-19T16:39:27;10.77;;;9.80;;
1577;SDS011;57623;53.608;10.004;2022-08-19T16:42:16;10.10;;;9.30;;
1577;SDS011;57623;53.608;10.004;2022-08-19T16:45:06;9.20;;;8.60;;
1577;SDS011;57623;53.608;10.004;2022-08-19T16:47:55;9.63;;;8.93;;
1577;SDS011;57623;53.608;10.004;2022-08-19T16:50:47;10.77;;;9.97;;
1577;SDS011;57623;53.608;10.004;2022-08-19T16:53:40;9.83;;;9.17;;
1577;SDS011;57623;53.608;10.004;2022-08-19T16:56:35;9.20;;;8.50;;